Impacts METAR Board INFO
IDs:

KMDW - Chicago/Midway Intl, IL, US

Updated at: 0627 UTC 14 Dec 2017
Potential Impact None Slight Moderate High
Time13/18Z 13/19Z 13/20Z 13/21Z 13/22Z 13/23Z 14/00Z 14/01Z 14/02Z 14/03Z 14/04Z 14/05Z 14/06Z
VIS10 10 10 6 10 9 10 10 9 9 10 9 10
CIG90 65 27 21 19 30 27 27 27 22 24 24 28
CoverOVCOVCOVCOVCOVCOVCOVCOVCOVCOVCOVCOVCOVC
FltCatVFRVFRMVFRMVFRMVFRMVFRMVFRMVFRMVFRMVFRMVFRMVFRMVFR
WX-----SN-SN -RA BR---SN-----SN-SN-SN-SN-SN
WDir210220230270300320320310310320340360340
WSpd14 14 12 12 19 14 19 23 24 18 16 15 10
WGst21 -- -- -- 26 27 36 30 33 -- 26 -- --
Raw hourly METARs
KMDW 131753Z 21014G21KT 10SM FEW034 BKN090 OVC150 03/M06 A2934 RMK AO2 SLP945 T00281056 10028 21033 56050
KMDW 131853Z 22014KT 10SM FEW034 BKN065 OVC090 03/M05 A2929 RMK AO2 SLP930 T00331050
KMDW 131953Z 23012KT 10SM -SN BKN027 OVC039 02/M01 A2927 RMK AO2 SNB22 SLP922 P0000 T00221011
KMDW 132053Z 27012KT 6SM -SNRA BR SCT017 BKN021 OVC029 02/01 A2929 RMK AO2 RAB44 SLP930 P0000 60000 T00220006 55015
KMDW 132153Z 30019G26KT 10SM SCT013 OVC019 02/M01 A2933 RMK AO2 PK WND 29026/2153 RAE06SNE06 SLP943 P0000 T00221011
KMDW 132253Z 32014G27KT 9SM -SN OVC030 02/M03 A2937 RMK AO2 PK WND 30028/2219 SNB37 SLP958 P0000 T00171033
KMDW 132353Z 32019G36KT 10SM BKN027 OVC038 01/M06 A2945 RMK AO2 PK WND 33036/2349 SNE46 PRESRR SLP982 P0000 60000 T00061056 10033 20006 53051
KMDW 140053Z 31023G30KT 10SM OVC027 M01/M07 A2952 RMK AO2 PK WND 30030/0052 PRESRR SLP007 T10111067
KMDW 140153Z 31024G33KT 9SM -SN BKN027 OVC040 M02/M07 A2957 RMK AO2 PK WND 31033/0145 SNB27 SLP026 P0000 T10171072
KMDW 140253Z 32018KT 9SM -SN BKN022 BKN027 OVC040 M02/M06 A2963 RMK AO2 PK WND 32029/0157 PRESRR SLP045 P0000 60000 T10171061 51061
KMDW 140353Z 34016G26KT 10SM -SN OVC024 M01/M06 A2968 RMK AO2 PK WND 32026/0348 SLP064 P0000 T10111056
KMDW 140453Z 36015KT 9SM -SN BKN024 OVC028 M01/M06 A2974 RMK AO2 PK WND 32027/0355 SLP080 P0000 T10111061
KMDW 140553Z 34010KT 10SM -SN SCT023 BKN028 OVC033 M02/M06 A2978 RMK AO2 SLP097 P0000 60000 T10171061 10006 21017 400331056 51052